Time;durP1;ratioP1;P1;durP2;ratioP2;P2;SDS_P1;SDS_P2;PMS_P1;PMS_P2;Temp;Humidity;BMP_temperature;BMP_pressure;BME280_temperature;BME280_humidity;BME280_pressure;Samples;Min_cycle;Max_cycle;Signal;HPM_P1;HPM_P2
2021/09/16 00:01:46;;;;;;;4.33;4.03;;;20.70;99.90;;;;;;4978068;28;20437;-52
2021/09/16 00:04:14;;;;;;;4.93;4.43;;;20.80;99.90;;;;;;4975257;28;20683;-54
2021/09/16 00:06:41;;;;;;;3.87;3.47;;;20.70;99.90;;;;;;4978332;28;20446;-56
2021/09/16 00:09:08;;;;;;;4.83;4.43;;;20.70;99.90;;;;;;4983534;28;20434;-57
2021/09/16 00:11:36;;;;;;;4.20;3.90;;;20.80;99.90;;;;;;4974850;28;20445;-55
2021/09/16 00:14:03;;;;;;;4.40;3.80;;;20.70;99.90;;;;;;4975605;28;20416;-54
2021/09/16 00:16:31;;;;;;;6.70;4.73;;;20.70;99.90;;;;;;4972289;28;20805;-50
2021/09/16 00:18:58;;;;;;;3.90;3.60;;;20.90;99.90;;;;;;4976310;28;20450;-55
2021/09/16 00:21:25;;;;;;;3.23;3.00;;;20.80;99.90;;;;;;4974563;28;20436;-54
2021/09/16 00:23:53;;;;;;;4.83;4.43;;;20.80;99.90;;;;;;4968666;28;20428;-54
2021/09/16 00:26:20;;;;;;;3.90;3.43;;;20.70;99.90;;;;;;4973507;28;20479;-54
2021/09/16 00:28:47;;;;;;;5.17;4.50;;;20.50;99.90;;;;;;4977598;28;20616;-50
2021/09/16 00:31:14;;;;;;;4.43;3.80;;;20.70;99.90;;;;;;4983165;28;20478;-56
2021/09/16 00:33:41;;;;;;;4.60;4.20;;;20.60;99.90;;;;;;4975256;28;20446;-52
2021/09/16 00:36:08;;;;;;;4.23;3.90;;;20.70;99.90;;;;;;4981596;28;20459;-53
2021/09/16 00:38:35;;;;;;;4.33;3.77;;;20.80;99.90;;;;;;4973554;28;20442;-53
2021/09/16 00:41:02;;;;;;;4.10;3.70;;;20.70;99.90;;;;;;4979243;28;20655;-53
2021/09/16 00:43:30;;;;;;;4.00;3.70;;;20.70;99.90;;;;;;4982577;28;20419;-53
2021/09/16 00:46:06;;;;;;;4.43;4.03;;;20.70;99.90;;;;;;4975450;28;20495;-56
2021/09/16 00:48:34;;;;;;;3.43;3.20;;;20.60;99.90;;;;;;4979551;28;20421;-56
2021/09/16 00:51:01;;;;;;;5.33;4.87;;;20.70;99.90;;;;;;4969265;28;20500;-51
2021/09/16 00:53:30;;;;;;;4.27;3.97;;;20.90;99.90;;;;;;4978864;28;20438;-56
2021/09/16 00:55:59;;;;;;;4.70;4.30;;;20.70;99.90;;;;;;4972792;28;20417;-55
2021/09/16 00:58:29;;;;;;;4.63;4.20;;;20.70;99.90;;;;;;4980296;28;20539;-56
2021/09/16 01:00:56;;;;;;;4.20;3.73;;;20.60;99.90;;;;;;4975450;28;20475;-55
2021/09/16 01:03:24;;;;;;;6.43;4.50;;;20.50;99.90;;;;;;4981785;28;20425;-51
2021/09/16 01:05:52;;;;;;;3.97;3.67;;;20.70;99.90;;;;;;4981548;28;20458;-54
2021/09/16 01:08:20;;;;;;;4.83;4.30;;;20.60;99.90;;;;;;4974029;28;20462;-51
2021/09/16 01:10:48;;;;;;;3.47;3.10;;;20.70;99.90;;;;;;4979939;28;20505;-51
2021/09/16 01:13:16;;;;;;;3.50;3.30;;;20.90;99.90;;;;;;4976572;28;20415;-54
2021/09/16 01:15:44;;;;;;;4.63;4.10;;;20.90;99.90;;;;;;4973815;28;20447;-52
2021/09/16 01:18:13;;;;;;;4.77;4.40;;;21.00;99.90;;;;;;4980679;28;20667;-52
2021/09/16 01:20:41;;;;;;;5.50;5.00;;;21.10;99.90;;;;;;4981518;28;20441;-53
2021/09/16 01:23:08;;;;;;;5.40;4.20;;;21.10;99.90;;;;;;4976126;28;20450;-52
2021/09/16 01:25:38;;;;;;;3.87;3.57;;;21.20;99.90;;;;;;4967049;28;20491;-54
2021/09/16 01:28:05;;;;;;;3.43;3.23;;;21.10;99.90;;;;;;4979555;28;20465;-51
2021/09/16 01:30:32;;;;;;;4.90;4.43;;;21.10;99.90;;;;;;4980334;28;20437;-55
2021/09/16 01:33:00;;;;;;;5.20;4.80;;;21.10;99.90;;;;;;4981049;28;20436;-53
2021/09/16 01:35:28;;;;;;;3.43;3.13;;;21.20;99.90;;;;;;4975812;28;20440;-54
2021/09/16 01:37:56;;;;;;;2.73;2.53;;;21.20;99.90;;;;;;4977412;28;20442;-55
2021/09/16 01:40:24;;;;;;;4.37;3.97;;;21.20;99.90;;;;;;4973557;28;20484;-51
2021/09/16 01:42:51;;;;;;;4.37;3.97;;;21.20;99.90;;;;;;4971343;28;20415;-57
2021/09/16 01:45:21;;;;;;;4.30;4.00;;;21.30;99.90;;;;;;4974548;28;20936;-54
2021/09/16 01:47:49;;;;;;;4.80;4.30;;;21.40;99.90;;;;;;4981587;28;20467;-55
2021/09/16 01:50:19;;;;;;;4.87;4.37;;;21.30;99.90;;;;;;4974282;28;20512;-53
2021/09/16 01:52:47;;;;;;;6.07;4.17;;;21.10;99.90;;;;;;4978265;28;20733;-52
2021/09/16 01:55:16;;;;;;;4.10;3.80;;;20.90;99.90;;;;;;4975678;28;20918;-52
2021/09/16 01:57:43;;;;;;;4.40;4.03;;;21.10;99.90;;;;;;4977734;28;20441;-51
2021/09/16 02:00:11;;;;;;;4.80;4.20;;;21.10;99.90;;;;;;4973731;28;20467;-54
2021/09/16 02:02:39;;;;;;;3.40;3.10;;;21.20;99.90;;;;;;4978292;28;20599;-52
2021/09/16 02:05:07;;;;;;;5.83;3.40;;;21.30;99.90;;;;;;4979059;28;20600;-51
2021/09/16 02:07:34;;;;;;;4.50;4.20;;;21.30;99.90;;;;;;4974942;28;20551;-56
2021/09/16 02:10:04;;;;;;;4.80;4.40;;;21.20;99.90;;;;;;4975637;28;20436;-52
2021/09/16 02:12:31;;;;;;;4.67;4.23;;;21.20;99.90;;;;;;4972994;28;20448;-52
2021/09/16 02:14:59;;;;;;;4.23;3.83;;;21.30;99.90;;;;;;4980624;28;20831;-56
2021/09/16 02:17:26;;;;;;;3.80;3.50;;;21.40;99.90;;;;;;4973688;28;20446;-52
2021/09/16 02:19:53;;;;;;;4.87;4.47;;;21.40;99.90;;;;;;4980623;28;20415;-54
2021/09/16 02:22:20;;;;;;;4.43;4.13;;;21.30;99.90;;;;;;4971630;28;20445;-53
2021/09/16 02:24:47;;;;;;;3.70;3.40;;;21.00;99.90;;;;;;4974216;28;20454;-54
2021/09/16 02:27:14;;;;;;;5.70;5.20;;;21.00;99.90;;;;;;4974093;28;20476;-54
2021/09/16 02:29:41;;;;;;;3.83;3.53;;;21.20;99.90;;;;;;4974362;28;20540;-48
2021/09/16 02:32:09;;;;;;;4.70;4.33;;;21.20;99.90;;;;;;4980067;28;20440;-56
2021/09/16 02:34:36;;;;;;;4.77;4.40;;;21.30;99.90;;;;;;4980345;28;20415;-54
2021/09/16 02:37:03;;;;;;;4.80;4.40;;;21.00;99.90;;;;;;4981924;28;20444;-52
2021/09/16 02:39:30;;;;;;;3.63;3.37;;;21.10;99.90;;;;;;4977026;28;20419;-52
2021/09/16 02:41:58;;;;;;;4.47;4.17;;;21.10;99.90;;;;;;4975269;28;20840;-54
2021/09/16 02:44:25;;;;;;;4.17;3.73;;;21.10;99.90;;;;;;4972577;28;20441;-56
2021/09/16 02:46:52;;;;;;;5.20;4.70;;;21.10;99.90;;;;;;4976839;28;20525;-54
2021/09/16 02:49:19;;;;;;;4.47;4.17;;;21.00;99.90;;;;;;4980448;28;20415;-56
2021/09/16 02:51:46;;;;;;;4.67;4.10;;;21.10;99.90;;;;;;4978178;28;20464;-53
2021/09/16 02:54:13;;;;;;;5.47;4.97;;;21.10;99.90;;;;;;4979291;28;20407;-55
2021/09/16 02:56:40;;;;;;;5.67;5.07;;;21.10;99.90;;;;;;4978358;28;20415;-54
2021/09/16 02:59:07;;;;;;;7.13;4.60;;;21.10;99.90;;;;;;4978419;28;20665;-58
2021/09/16 03:01:35;;;;;;;7.10;6.40;;;21.00;99.90;;;;;;4979419;28;20694;-56
2021/09/16 03:04:02;;;;;;;5.17;4.70;;;20.90;99.90;;;;;;4975309;28;20411;-54
2021/09/16 03:06:30;;;;;;;4.43;4.03;;;20.70;99.90;;;;;;4980122;28;20451;-57
2021/09/16 03:08:57;;;;;;;4.13;3.83;;;20.60;99.90;;;;;;4979698;28;20407;-54
2021/09/16 03:11:24;;;;;;;3.90;3.60;;;20.70;99.90;;;;;;4979653;28;20435;-49
2021/09/16 03:13:51;;;;;;;5.37;4.67;;;20.60;99.90;;;;;;4974887;28;20746;-54
2021/09/16 03:16:18;;;;;;;4.07;3.73;;;20.70;99.90;;;;;;4973867;28;20440;-56
2021/09/16 03:18:46;;;;;;;5.07;4.67;;;20.70;99.90;;;;;;4977341;28;20513;-50
2021/09/16 03:21:13;;;;;;;4.03;3.77;;;20.70;99.90;;;;;;4973315;28;20427;-56
2021/09/16 03:23:40;;;;;;;4.10;3.63;;;20.80;99.90;;;;;;4971709;28;20445;-55
2021/09/16 03:26:07;;;;;;;5.00;4.43;;;20.80;99.90;;;;;;4979480;28;20636;-55
2021/09/16 03:28:38;;;;;;;4.40;4.00;;;20.70;99.90;;;;;;4979390;28;20467;-55
2021/09/16 03:31:06;;;;;;;4.97;4.57;;;20.80;99.90;;;;;;4977802;28;20579;-55
2021/09/16 03:33:34;;;;;;;4.70;4.30;;;20.80;99.90;;;;;;4979036;28;20697;-54
2021/09/16 03:36:02;;;;;;;4.27;3.87;;;20.70;99.90;;;;;;4978773;28;20426;-52
2021/09/16 03:38:30;;;;;;;4.63;4.23;;;20.70;99.90;;;;;;4974083;28;20418;-50
2021/09/16 03:40:57;;;;;;;4.60;4.17;;;20.80;99.90;;;;;;4971157;28;21091;-56
2021/09/16 03:43:24;;;;;;;4.70;3.90;;;20.90;99.90;;;;;;4978837;28;20445;-49
2021/09/16 03:45:51;;;;;;;5.23;4.77;;;20.70;99.90;;;;;;4972958;28;20479;-53
2021/09/16 03:48:19;;;;;;;4.67;4.37;;;20.70;99.90;;;;;;4975796;28;20419;-54
2021/09/16 03:50:46;;;;;;;5.23;4.77;;;20.80;99.90;;;;;;4979614;28;20493;-57
2021/09/16 03:53:14;;;;;;;5.90;5.40;;;20.50;99.90;;;;;;4976510;28;20609;-57
2021/09/16 03:55:41;;;;;;;5.00;4.60;;;20.50;99.90;;;;;;4968483;28;20438;-53
2021/09/16 03:58:08;;;;;;;3.90;3.50;;;20.70;99.90;;;;;;4974252;28;20481;-52
2021/09/16 04:00:36;;;;;;;4.00;3.53;;;20.60;99.90;;;;;;4973587;28;20420;-54
2021/09/16 04:03:10;;;;;;;3.87;3.60;;;20.50;99.90;;;;;;4970542;28;20531;-58
2021/09/16 04:05:40;;;;;;;3.80;3.50;;;20.70;99.90;;;;;;4966512;28;20463;-56
2021/09/16 04:08:08;;;;;;;4.23;3.70;;;20.70;99.90;;;;;;4974024;28;20806;-56
2021/09/16 04:10:35;;;;;;;4.97;4.50;;;20.70;99.90;;;;;;4969713;28;20501;-52
2021/09/16 04:13:02;;;;;;;5.57;5.07;;;20.80;99.90;;;;;;4976315;28;20756;-55
2021/09/16 04:15:29;;;;;;;4.63;4.27;;;20.80;99.90;;;;;;4976633;28;20683;-50
2021/09/16 04:17:57;;;;;;;4.57;4.20;;;20.70;99.90;;;;;;4969523;28;20443;-55
2021/09/16 04:20:24;;;;;;;4.87;4.20;;;20.70;99.90;;;;;;4977391;28;20693;-54
2021/09/16 04:22:51;;;;;;;3.23;3.03;;;20.70;99.90;;;;;;4962102;28;20488;-55
2021/09/16 04:25:18;;;;;;;5.27;4.77;;;20.70;99.90;;;;;;4974468;28;20412;-53
2021/09/16 04:27:46;;;;;;;4.40;4.00;;;20.70;99.90;;;;;;4970054;28;20542;-53
2021/09/16 04:30:13;;;;;;;5.93;3.80;;;20.70;99.90;;;;;;4976191;28;20700;-52
2021/09/16 04:32:41;;;;;;;4.00;3.70;;;20.60;99.90;;;;;;4975568;28;20439;-57
2021/09/16 04:35:09;;;;;;;5.17;4.67;;;20.50;99.90;;;;;;4977957;28;20420;-53
2021/09/16 04:37:36;;;;;;;5.03;4.53;;;20.60;99.90;;;;;;4971378;28;20444;-54
2021/09/16 04:40:05;;;;;;;5.10;4.60;;;20.60;99.90;;;;;;4970820;28;20587;-51
2021/09/16 04:42:32;;;;;;;5.27;4.87;;;20.50;99.90;;;;;;4969865;28;20460;-52
2021/09/16 04:45:00;;;;;;;5.47;4.97;;;20.30;99.90;;;;;;4972723;28;20511;-54
2021/09/16 04:47:27;;;;;;;4.30;3.97;;;20.20;99.90;;;;;;4968938;28;20460;-51
2021/09/16 04:49:54;;;;;;;4.63;3.90;;;20.10;99.90;;;;;;4971242;28;20415;-52
2021/09/16 04:52:21;;;;;;;5.33;4.93;;;20.30;99.90;;;;;;4970844;28;20464;-52
2021/09/16 04:54:48;;;;;;;3.70;3.40;;;20.40;99.90;;;;;;4965286;28;20436;-57
2021/09/16 04:57:15;;;;;;;4.80;4.40;;;20.50;99.90;;;;;;4968617;28;20416;-55
2021/09/16 04:59:43;;;;;;;4.90;4.40;;;20.50;99.90;;;;;;4958988;28;20436;-57
2021/09/16 05:02:10;;;;;;;4.90;4.50;;;20.50;99.90;;;;;;4959275;28;20707;-55
2021/09/16 05:04:37;;;;;;;5.90;4.80;;;20.60;99.90;;;;;;4961255;28;20734;-51
2021/09/16 05:07:04;;;;;;;6.47;5.40;;;20.70;99.90;;;;;;4961130;28;20543;-54
2021/09/16 05:09:31;;;;;;;5.93;5.37;;;20.90;99.90;;;;;;4958862;28;20431;-55
2021/09/16 05:11:58;;;;;;;5.27;4.97;;;20.90;99.90;;;;;;4961013;28;20789;-54
2021/09/16 05:14:25;;;;;;;4.50;4.10;;;21.10;99.90;;;;;;4961798;28;20727;-51
2021/09/16 05:16:52;;;;;;;4.77;4.37;;;21.10;99.90;;;;;;4963043;28;20437;-53
2021/09/16 05:19:20;;;;;;;5.00;4.60;;;21.20;99.90;;;;;;4962054;28;20585;-54
2021/09/16 05:21:47;;;;;;;5.37;4.97;;;21.20;99.90;;;;;;4961899;28;20439;-52
2021/09/16 05:24:18;;;;;;;5.20;4.67;;;21.10;99.90;;;;;;4964500;28;20433;-50
2021/09/16 05:26:46;;;;;;;5.13;4.73;;;21.00;99.90;;;;;;4972097;28;20451;-54
2021/09/16 05:29:13;;;;;;;5.50;5.03;;;21.30;99.90;;;;;;4970334;28;20606;-50
2021/09/16 05:31:40;;;;;;;4.80;4.40;;;21.30;99.90;;;;;;4973843;28;20519;-52
2021/09/16 05:34:08;;;;;;;4.20;3.90;;;21.10;99.90;;;;;;4977611;28;20437;-53
2021/09/16 05:36:35;;;;;;;6.80;6.10;;;21.20;99.90;;;;;;4978427;28;20409;-52
2021/09/16 05:39:03;;;;;;;4.20;3.80;;;21.30;99.90;;;;;;4972742;28;20662;-50
2021/09/16 05:41:30;;;;;;;7.57;6.13;;;21.40;99.90;;;;;;4978024;28;20778;-54
2021/09/16 05:43:58;;;;;;;7.00;6.30;;;21.70;99.90;;;;;;4969070;28;20800;-53
2021/09/16 05:46:25;;;;;;;4.57;4.17;;;21.90;99.90;;;;;;4964624;28;20510;-54
2021/09/16 05:48:52;;;;;;;4.77;4.40;;;22.20;99.90;;;;;;4971587;28;20451;-53
2021/09/16 05:51:19;;;;;;;5.00;4.60;;;22.50;99.90;;;;;;4978158;28;20438;-53
2021/09/16 05:53:47;;;;;;;5.33;4.83;;;22.80;99.90;;;;;;4977235;28;20440;-50
2021/09/16 05:56:15;;;;;;;6.07;5.50;;;23.20;99.90;;;;;;4973103;28;20612;-52
2021/09/16 05:58:42;;;;;;;6.80;6.20;;;23.60;99.90;;;;;;4976897;28;20467;-51
2021/09/16 06:01:10;;;;;;;6.17;5.67;;;24.00;99.90;;;;;;4979985;28;20800;-54
2021/09/16 06:03:37;;;;;;;4.23;3.83;;;24.20;99.90;;;;;;4974048;28;20599;-55
2021/09/16 06:06:05;;;;;;;4.97;4.43;;;24.20;99.90;;;;;;4970876;28;20427;-56
2021/09/16 06:08:33;;;;;;;6.00;5.50;;;24.10;99.90;;;;;;4978054;28;20487;-52
2021/09/16 06:11:00;;;;;;;5.03;4.60;;;24.00;99.90;;;;;;4979922;28;20478;-56
2021/09/16 06:13:28;;;;;;;6.50;6.00;;;23.90;99.90;;;;;;4978339;28;20821;-52
2021/09/16 06:15:55;;;;;;;5.10;4.70;;;23.60;99.90;;;;;;4974277;28;20695;-54
2021/09/16 06:18:22;;;;;;;5.67;4.80;;;23.50;99.90;;;;;;4979747;28;20444;-52
2021/09/16 06:20:49;;;;;;;7.83;7.23;;;23.50;99.90;;;;;;4980087;28;20777;-55
2021/09/16 06:23:17;;;;;;;5.30;4.90;;;23.30;99.90;;;;;;4979242;28;20449;-60
2021/09/16 06:25:45;;;;;;;5.07;4.63;;;23.10;99.90;;;;;;4976197;28;20764;-53
2021/09/16 06:28:12;;;;;;;6.27;5.70;;;22.90;99.90;;;;;;4978740;28;20483;-54
2021/09/16 06:30:39;;;;;;;4.77;4.10;;;22.80;99.90;;;;;;4979283;28;20608;-54
2021/09/16 06:33:07;;;;;;;4.80;4.40;;;22.80;99.90;;;;;;4980332;28;20789;-55
2021/09/16 06:35:34;;;;;;;6.40;5.97;;;22.90;99.90;;;;;;4979046;28;20479;-53
2021/09/16 06:38:01;;;;;;;5.17;4.67;;;22.80;99.90;;;;;;4977670;28;20617;-56
2021/09/16 06:40:29;;;;;;;4.13;3.83;;;22.90;99.90;;;;;;4979843;28;20425;-51
2021/09/16 06:42:56;;;;;;;6.13;5.63;;;22.80;99.90;;;;;;4977625;28;20421;-55
2021/09/16 06:45:23;;;;;;;5.00;4.30;;;22.90;99.90;;;;;;4974727;28;20649;-54
2021/09/16 06:47:50;;;;;;;5.57;5.07;;;23.00;99.90;;;;;;4976686;28;20740;-53
2021/09/16 06:50:18;;;;;;;6.33;5.73;;;23.10;99.90;;;;;;4976642;28;20485;-52
2021/09/16 06:52:45;;;;;;;6.57;5.97;;;23.20;99.90;;;;;;4977146;28;20446;-53
2021/09/16 06:55:13;;;;;;;3.50;3.30;;;23.40;99.90;;;;;;4976009;28;20520;-53
2021/09/16 06:57:41;;;;;;;5.47;5.10;;;23.60;99.90;;;;;;4975847;28;20439;-52
2021/09/16 07:00:09;;;;;;;4.80;4.40;;;23.90;99.90;;;;;;4979283;28;20458;-48
2021/09/16 07:02:36;;;;;;;6.43;5.73;;;24.20;99.90;;;;;;4980103;28;20690;-51
2021/09/16 07:05:05;;;;;;;4.87;4.23;;;24.50;99.90;;;;;;4973720;28;20629;-56
2021/09/16 07:07:32;;;;;;;4.90;4.50;;;24.70;99.90;;;;;;4974442;28;20447;-57
2021/09/16 07:10:00;;;;;;;4.00;3.50;;;24.80;99.90;;;;;;4975879;28;20675;-55
2021/09/16 07:12:30;;;;;;;4.73;4.33;;;25.00;99.90;;;;;;4973154;28;20452;-53
2021/09/16 07:14:57;;;;;;;5.90;5.40;;;24.90;99.90;;;;;;4976623;28;20411;-59
2021/09/16 07:17:24;;;;;;;5.20;4.80;;;25.00;99.90;;;;;;4974576;28;20442;-53
2021/09/16 07:19:51;;;;;;;5.73;5.20;;;25.00;99.90;;;;;;4980902;28;20491;-55
2021/09/16 07:22:19;;;;;;;5.37;4.97;;;25.00;99.90;;;;;;4975763;28;20520;-56
2021/09/16 07:24:46;;;;;;;5.13;4.73;;;25.00;99.90;;;;;;4975305;28;20752;-51
2021/09/16 07:27:14;;;;;;;4.77;4.37;;;25.10;99.90;;;;;;4976072;28;20865;-52
2021/09/16 07:29:41;;;;;;;5.40;4.90;;;25.20;99.90;;;;;;4976757;28;20429;-54
2021/09/16 07:32:08;;;;;;;7.63;7.03;;;24.90;99.90;;;;;;4977405;28;20483;-49
2021/09/16 07:34:35;;;;;;;5.07;4.67;;;24.80;99.90;;;;;;4975133;28;20673;-52
2021/09/16 07:37:05;;;;;;;5.80;5.27;;;25.10;99.90;;;;;;4977087;28;20446;-53
2021/09/16 07:39:32;;;;;;;6.43;5.70;;;25.30;99.90;;;;;;4970058;28;20412;-55
2021/09/16 07:41:59;;;;;;;5.13;4.73;;;25.50;99.90;;;;;;4972290;28;20461;-50
2021/09/16 07:44:26;;;;;;;4.37;4.07;;;25.70;99.90;;;;;;4962206;28;20434;-54
2021/09/16 07:46:54;;;;;;;5.30;4.33;;;25.90;99.90;;;;;;4977350;28;20436;-54
2021/09/16 07:49:28;;;;;;;3.90;3.60;;;26.10;99.90;;;;;;4967644;28;20428;-57
2021/09/16 07:51:56;;;;;;;4.20;4.00;;;26.30;99.90;;;;;;4969632;28;20962;-59
2021/09/16 07:54:23;;;;;;;5.17;4.77;;;26.50;99.90;;;;;;4975720;28;20514;-55
2021/09/16 07:56:51;;;;;;;6.30;5.70;;;26.70;99.90;;;;;;4969889;28;20480;-46
2021/09/16 07:59:18;;;;;;;7.57;6.97;;;26.60;99.90;;;;;;4974402;28;20469;-53
2021/09/16 08:01:45;;;;;;;3.97;3.70;;;26.50;99.90;;;;;;4977110;28;20505;-55
2021/09/16 08:04:13;;;;;;;4.20;3.90;;;26.30;99.90;;;;;;4973839;28;20461;-55
2021/09/16 08:06:40;;;;;;;4.43;4.10;;;25.90;99.90;;;;;;4970227;28;20468;-58
2021/09/16 08:09:08;;;;;;;4.60;4.20;;;25.30;99.90;;;;;;4969118;28;20473;-54
2021/09/16 08:11:38;;;;;;;3.40;3.20;;;24.60;99.90;;;;;;4976864;28;20825;-53
2021/09/16 08:14:07;;;;;;;4.63;4.23;;;24.40;99.90;;;;;;4971896;28;20411;-55
2021/09/16 08:16:34;;;;;;;4.83;4.43;;;24.20;99.90;;;;;;4967631;28;20491;-55
2021/09/16 08:19:03;;;;;;;4.17;3.87;;;24.20;99.90;;;;;;4976298;28;20439;-52
2021/09/16 08:21:31;;;;;;;4.13;3.83;;;24.20;99.90;;;;;;4974447;28;20468;-50
2021/09/16 08:23:59;;;;;;;3.70;3.50;;;24.30;99.90;;;;;;4971980;28;20423;-52
2021/09/16 08:26:27;;;;;;;4.73;4.30;;;24.30;99.90;;;;;;4973285;28;20436;-57
2021/09/16 08:28:54;;;;;;;3.23;3.03;;;24.50;99.90;;;;;;4978812;28;20538;-50
2021/09/16 08:31:22;;;;;;;3.80;3.50;;;24.50;99.90;;;;;;4978957;28;20468;-56
2021/09/16 08:33:50;;;;;;;3.57;3.30;;;24.60;99.90;;;;;;4976162;28;20440;-59
2021/09/16 08:36:17;;;;;;;3.87;3.57;;;24.80;99.90;;;;;;4978194;28;20411;-54
2021/09/16 08:38:45;;;;;;;5.80;3.00;;;24.80;99.90;;;;;;4983615;28;20666;-54
2021/09/16 08:41:12;;;;;;;3.83;3.63;;;25.00;99.90;;;;;;4971427;28;20467;-56
2021/09/16 08:43:42;;;;;;;3.97;3.73;;;25.20;99.90;;;;;;4969966;28;20469;-57
2021/09/16 08:46:09;;;;;;;5.30;4.03;;;25.10;99.90;;;;;;4973198;28;20446;-56
2021/09/16 08:48:41;;;;;;;3.60;3.40;;;25.10;99.90;;;;;;4983368;28;20463;-54
2021/09/16 08:51:10;;;;;;;3.17;2.97;;;25.10;99.90;;;;;;4982837;28;20787;-56
2021/09/16 08:53:40;;;;;;;4.07;3.80;;;25.30;99.90;;;;;;4979004;28;20447;-55
2021/09/16 08:56:07;;;;;;;3.60;3.30;;;25.50;99.90;;;;;;4977847;28;20454;-55
2021/09/16 08:58:36;;;;;;;3.47;3.27;;;25.30;99.90;;;;;;4979013;28;20440;-54
2021/09/16 09:01:03;;;;;;;3.57;3.37;;;25.40;99.90;;;;;;4982417;28;20476;-55
2021/09/16 09:03:31;;;;;;;3.57;3.27;;;25.50;99.90;;;;;;4979517;28;20679;-54
2021/09/16 09:05:58;;;;;;;3.97;3.67;;;25.20;99.90;;;;;;4975061;28;20477;-57
2021/09/16 09:08:27;;;;;;;2.90;2.80;;;24.90;99.90;;;;;;4980041;28;20476;-57
2021/09/16 09:10:58;;;;;;;2.73;2.53;;;24.60;99.90;;;;;;4975343;28;20500;-52
2021/09/16 09:13:28;;;;;;;3.53;3.27;;;24.40;99.90;;;;;;4977041;28;20634;-58
2021/09/16 09:16:05;;;;;;;3.13;2.93;;;24.10;99.90;;;;;;4977025;28;20843;-52
2021/09/16 09:18:48;;;;;;;3.80;3.50;;;24.40;99.90;;;;;;4974496;28;20726;-52
2021/09/16 09:21:17;;;;;;;3.13;2.93;;;24.70;99.90;;;;;;4977957;28;20452;-47
2021/09/16 09:23:54;;;;;;;3.60;3.40;;;24.90;99.90;;;;;;4980766;28;20433;-55
2021/09/16 09:26:31;;;;;;;2.43;2.33;;;24.90;99.90;;;;;;4972731;28;20419;-56
2021/09/16 09:29:07;;;;;;;2.63;2.53;;;24.90;99.90;;;;;;4975572;28;20483;-55
2021/09/16 09:31:56;;;;;;;2.70;2.57;;;25.10;99.90;;;;;;4979462;28;20460;-56
2021/09/16 09:34:34;;;;;;;4.63;4.23;;;25.00;99.90;;;;;;4973654;28;20420;-58
2021/09/16 09:37:17;;;;;;;3.60;3.40;;;25.00;99.90;;;;;;4979662;28;20436;-58
2021/09/16 09:39:49;;;;;;;2.50;2.40;;;25.00;99.90;;;;;;4974590;28;20440;-58
2021/09/16 09:42:22;;;;;;;3.53;3.23;;;24.90;99.90;;;;;;4979968;28;20507;-53
2021/09/16 09:44:52;;;;;;;2.80;2.70;;;25.30;99.90;;;;;;4974439;28;20453;-54
2021/09/16 09:47:35;;;;;;;2.77;2.60;;;25.70;99.90;;;;;;4970621;28;20432;-56
2021/09/16 09:50:05;;;;;;;3.77;3.57;;;25.80;99.90;;;;;;4977183;28;20483;-52
2021/09/16 09:52:32;;;;;;;2.97;2.83;;;26.00;99.90;;;;;;4975946;28;20449;-51
2021/09/16 09:55:10;;;;;;;3.80;3.50;;;26.00;99.90;;;;;;4973893;28;20515;-50
2021/09/16 09:57:38;;;;;;;3.00;2.80;;;25.90;99.90;;;;;;4972821;28;20412;-54
2021/09/16 10:00:10;;;;;;;3.70;3.50;;;26.30;99.90;;;;;;4974668;28;20419;-54
2021/09/16 10:02:52;;;;;;;3.13;2.93;;;26.00;99.90;;;;;;4970687;28;20457;-53
2021/09/16 10:05:23;;;;;;;3.97;3.67;;;25.80;99.90;;;;;;4975318;28;20459;-54
2021/09/16 10:07:53;;;;;;;3.13;2.93;;;25.60;99.90;;;;;;4971704;28;20495;-54
2021/09/16 10:10:21;;;;;;;3.90;3.60;;;25.80;99.90;;;;;;4973345;28;20523;-55
2021/09/16 10:12:54;;;;;;;3.93;3.63;;;25.60;99.90;;;;;;4973085;28;20574;-50
2021/09/16 10:15:23;;;;;;;3.03;2.83;;;25.30;99.90;;;;;;4975869;28;20466;-53
2021/09/16 10:17:52;;;;;;;3.70;3.40;;;25.10;99.90;;;;;;4971134;28;20438;-53
2021/09/16 10:20:24;;;;;;;2.63;2.53;;;24.90;99.90;;;;;;4974521;28;20448;-58
2021/09/16 10:22:59;;;;;;;2.97;2.77;;;24.50;99.90;;;;;;4973752;28;20822;-53
2021/09/16 10:25:27;;;;;;;3.30;3.07;;;24.10;99.90;;;;;;4973832;28;20718;-49
2021/09/16 10:28:03;;;;;;;4.00;3.70;;;23.80;99.90;;;;;;4976109;28;20480;-53
2021/09/16 10:30:38;;;;;;;2.43;2.33;;;23.30;99.90;;;;;;4973872;28;20734;-54
2021/09/16 10:33:26;;;;;;;2.50;2.30;;;23.10;99.90;;;;;;4979475;28;20480;-53
2021/09/16 10:35:59;;;;;;;3.60;3.40;;;23.10;99.90;;;;;;4973719;28;20431;-55
2021/09/16 10:38:37;;;;;;;3.10;2.90;;;23.10;99.90;;;;;;4972395;28;20417;-55
2021/09/16 10:41:27;;;;;;;3.97;3.63;;;23.20;99.90;;;;;;4976795;28;20550;-56
2021/09/16 10:43:57;;;;;;;2.60;2.40;;;23.30;99.90;;;;;;4977860;28;20413;-56
2021/09/16 10:46:35;;;;;;;2.90;2.70;;;22.90;99.90;;;;;;4977361;28;20751;-54
2021/09/16 10:49:26;;;;;;;2.70;2.50;;;22.50;99.90;;;;;;4973024;28;20459;-54
2021/09/16 10:51:59;;;;;;;3.73;3.43;;;21.90;99.90;;;;;;4980608;28;20463;-54
2021/09/16 10:54:45;;;;;;;3.70;3.40;;;21.70;99.90;;;;;;4968551;28;20773;-54
2021/09/16 10:57:15;;;;;;;3.20;2.90;;;21.60;99.90;;;;;;4978009;28;20786;-52
2021/09/16 10:59:52;;;;;;;3.00;2.80;;;21.70;99.90;;;;;;4980382;28;20465;-54
2021/09/16 11:02:25;;;;;;;2.77;2.57;;;22.00;99.90;;;;;;4969529;28;20816;-52
2021/09/16 11:04:56;;;;;;;2.10;2.00;;;22.20;99.90;;;;;;4981257;28;20443;-54
2021/09/16 11:07:38;;;;;;;2.30;2.20;;;22.50;99.90;;;;;;4971254;28;20464;-53
2021/09/16 11:10:16;;;;;;;2.57;2.37;;;22.60;99.90;;;;;;4975843;28;20465;-52
2021/09/16 11:13:04;;;;;;;3.03;2.83;;;22.40;99.90;;;;;;4980265;28;20430;-56
2021/09/16 11:15:33;;;;;;;2.67;2.47;;;22.30;99.90;;;;;;4972379;28;20435;-55
2021/09/16 11:18:05;;;;;;;3.77;3.43;;;22.00;99.90;;;;;;4967935;28;20481;-55
2021/09/16 11:20:33;;;;;;;2.93;2.73;;;21.90;99.90;;;;;;4975113;28;20403;-56
2021/09/16 11:23:02;;;;;;;1.90;1.80;;;21.80;99.90;;;;;;4969839;28;20765;-58
2021/09/16 11:25:44;;;;;;;2.23;2.13;;;21.90;99.90;;;;;;4977696;28;20445;-58
2021/09/16 11:28:13;;;;;;;2.77;2.57;;;22.20;99.90;;;;;;4980456;28;20640;-56
2021/09/16 11:30:41;;;;;;;3.67;3.40;;;22.40;99.90;;;;;;4977109;28;20486;-47
2021/09/16 11:33:15;;;;;;;2.50;2.30;;;22.50;99.90;;;;;;4972616;28;20415;-55
2021/09/16 11:35:43;;;;;;;3.90;3.30;;;22.80;99.90;;;;;;4978308;28;20652;-55
2021/09/16 11:38:13;;;;;;;2.27;2.13;;;22.90;99.90;;;;;;4975687;28;20459;-49
2021/09/16 11:40:43;;;;;;;2.17;2.03;;;22.90;99.90;;;;;;4972634;28;20440;-57
2021/09/16 11:43:13;;;;;;;2.83;2.63;;;22.70;99.90;;;;;;4975599;28;20518;-56
2021/09/16 11:45:43;;;;;;;2.10;2.00;;;22.60;99.90;;;;;;4966355;28;20450;-50
2021/09/16 11:48:17;;;;;;;2.37;2.17;;;22.70;99.90;;;;;;4964941;28;20786;-57
2021/09/16 11:50:57;;;;;;;3.10;2.80;;;22.50;99.90;;;;;;4964211;28;20477;-56
2021/09/16 11:53:28;;;;;;;5.60;3.90;;;22.50;99.90;;;;;;4973423;28;20428;-56
2021/09/16 11:56:07;;;;;;;3.30;3.10;;;22.60;99.90;;;;;;4974341;28;20443;-60
2021/09/16 11:58:39;;;;;;;3.67;3.13;;;22.70;99.90;;;;;;4972665;28;20810;-57
2021/09/16 12:01:10;;;;;;;3.33;3.03;;;22.60;99.90;;;;;;4970047;28;20446;-54
2021/09/16 12:03:43;;;;;;;2.80;2.50;;;22.60;99.90;;;;;;4976047;28;20429;-56
2021/09/16 12:06:15;;;;;;;4.40;2.63;;;22.70;99.90;;;;;;4964626;28;20468;-53
2021/09/16 12:08:52;;;;;;;3.33;3.13;;;22.90;99.90;;;;;;4977706;28;20743;-58
2021/09/16 12:11:22;;;;;;;3.70;3.40;;;23.00;99.90;;;;;;4961674;28;20470;-58
2021/09/16 12:13:52;;;;;;;2.87;2.60;;;23.00;99.90;;;;;;4974215;28;20499;-57
2021/09/16 12:16:24;;;;;;;3.43;3.00;;;23.20;99.90;;;;;;4979711;28;20455;-54
2021/09/16 12:18:55;;;;;;;3.40;3.10;;;23.60;99.90;;;;;;4972565;28;21097;-55
2021/09/16 12:21:35;;;;;;;4.03;3.73;;;23.40;99.90;;;;;;4969755;28;20684;-51
2021/09/16 12:24:21;;;;;;;4.30;3.20;;;23.80;99.90;;;;;;4979404;28;20437;-56
2021/09/16 12:26:51;;;;;;;4.33;4.00;;;24.00;99.90;;;;;;4976846;28;20452;-53
2021/09/16 12:29:24;;;;;;;3.00;2.80;;;24.00;99.90;;;;;;4967112;28;20488;-57
2021/09/16 12:32:08;;;;;;;3.80;3.50;;;24.20;99.90;;;;;;4976864;28;20456;-59
2021/09/16 12:34:43;;;;;;;3.20;2.97;;;24.30;99.90;;;;;;4982772;28;20463;-56
2021/09/16 12:37:14;;;;;;;3.17;2.97;;;24.30;99.90;;;;;;4983481;28;20511;-58
2021/09/16 12:39:43;;;;;;;2.83;2.63;;;24.30;99.90;;;;;;4977665;28;20783;-55
2021/09/16 12:42:14;;;;;;;3.37;2.80;;;24.20;99.90;;;;;;4979609;28;20460;-58
2021/09/16 12:44:43;;;;;;;2.63;2.43;;;24.40;99.90;;;;;;4975515;28;20484;-57
2021/09/16 12:47:15;;;;;;;2.90;2.70;;;24.70;99.90;;;;;;4979000;28;20627;-56
2021/09/16 12:49:42;;;;;;;4.03;3.70;;;24.80;99.90;;;;;;4976892;28;20484;-54
2021/09/16 12:52:17;;;;;;;3.30;3.00;;;24.80;99.90;;;;;;4979081;28;20501;-53
2021/09/16 12:54:59;;;;;;;3.77;3.47;;;24.90;99.90;;;;;;4974390;28;20432;-54
2021/09/16 12:57:39;;;;;;;3.00;2.80;;;24.60;99.90;;;;;;4971130;28;20495;-55
2021/09/16 13:00:08;;;;;;;2.83;2.63;;;24.50;99.90;;;;;;4971208;28;20443;-55